ěÝzenÝ letovÚho provozu ╚eskÚ republiky
Letiste: LKPR Aktualizace: 10.05.2021 05:30:24  UTC
 METAR LKPR 10.05. 05:30 ...
METAR LKPR 100530Z 11007KT CAVOK 13/06 Q1010 NOSIG RMK REG QNH 1007=
 TAF LKPR 10.05. 05:00 ...
TAF LKPR 100500Z 1006/1112 12008KT CAVOK=